createdAt,value
2017-07-31T00:00:01.594Z,18.29
2017-07-31T00:01:01.581Z,18.25
2017-07-31T00:02:01.607Z,18.25
2017-07-31T00:03:01.533Z,18.31
2017-07-31T00:04:01.523Z,18.28
2017-07-31T00:05:01.498Z,18.32
2017-07-31T00:06:01.482Z,18.34
2017-07-31T00:07:01.459Z,18.28
2017-07-31T00:08:01.436Z,18.34
2017-07-31T00:09:01.411Z,18.29
2017-07-31T00:10:01.093Z,18.17
2017-07-31T00:11:01.380Z,18.17
2017-07-31T00:12:01.065Z,18.19
2017-07-31T00:13:01.388Z,18.07
2017-07-31T00:14:01.313Z,18.1
2017-07-31T00:15:01.300Z,18.07
2017-07-31T00:16:01.273Z,18.02
2017-07-31T00:17:01.259Z,17.95
2017-07-31T00:18:01.292Z,17.99
2017-07-31T00:19:01.221Z,17.92
2017-07-31T00:20:00.894Z,17.86
2017-07-31T00:21:01.183Z,18.01
2017-07-31T00:22:01.205Z,17.89
2017-07-31T00:23:00.832Z,18.01
2017-07-31T00:24:01.167Z,17.99
2017-07-31T00:25:01.094Z,17.99
2017-07-31T00:26:01.074Z,17.94
2017-07-31T00:27:01.057Z,17.89
2017-07-31T00:28:01.038Z,17.95
2017-07-31T00:29:01.012Z,17.94
2017-07-31T00:30:00.996Z,17.84
2017-07-31T00:31:01.024Z,17.92
2017-07-31T00:32:00.656Z,17.94
2017-07-31T00:33:00.627Z,17.92
2017-07-31T00:34:00.603Z,17.96
2017-07-31T00:35:00.904Z,17.91
2017-07-31T00:36:00.870Z,17.92
2017-07-31T00:37:00.856Z,17.92
2017-07-31T00:38:00.826Z,17.94
2017-07-31T00:39:00.818Z,17.91
2017-07-31T00:40:00.813Z,17.89
2017-07-31T00:41:00.774Z,17.92
2017-07-31T00:42:00.743Z,17.94
2017-07-31T00:43:00.777Z,17.81
2017-07-31T00:44:00.708Z,17.89
2017-07-31T00:45:00.690Z,17.84
2017-07-31T00:46:00.660Z,17.8
2017-07-31T00:47:00.692Z,17.89
2017-07-31T00:48:00.630Z,17.8
2017-07-31T00:49:00.659Z,17.91
2017-07-31T00:50:00.283Z,17.91
2017-07-31T00:51:00.261Z,17.8
2017-07-31T00:52:00.557Z,17.8
2017-07-31T00:53:00.519Z,17.8
2017-07-31T00:54:00.526Z,17.8
2017-07-31T00:55:00.486Z,17.79
2017-07-31T00:56:00.459Z,17.74
2017-07-31T00:57:00.443Z,17.86
2017-07-31T00:58:00.425Z,17.83
2017-07-31T00:59:00.098Z,17.83
2017-07-31T01:00:00.386Z,17.76
2017-07-31T01:01:00.364Z,17.84
2017-07-31T01:02:00.336Z,17.83
2017-07-31T01:03:00.329Z,17.76
2017-07-31T01:04:00.295Z,17.8
2017-07-31T01:05:00.277Z,17.79
2017-07-31T01:06:00.258Z,17.8
2017-07-31T01:07:00.235Z,17.83
2017-07-31T01:08:00.213Z,17.81
2017-07-31T01:09:00.200Z,17.79
2017-07-31T01:10:00.178Z,17.8
2017-07-31T01:11:00.203Z,17.84
2017-07-31T01:12:00.137Z,17.91
2017-07-31T01:13:00.121Z,17.76
2017-07-31T01:14:00.092Z,17.79
2017-07-31T01:15:00.072Z,17.77
2017-07-31T01:16:00.059Z,17.8
2017-07-31T01:17:00.041Z,17.8
2017-07-31T01:17:59.942Z,17.83
2017-07-31T01:18:59.690Z,17.73
2017-07-31T01:19:59.969Z,17.79
2017-07-31T01:20:59.957Z,17.87
2017-07-31T01:21:59.934Z,17.74
2017-07-31T01:22:59.608Z,17.74
2017-07-31T01:23:59.895Z,17.74
2017-07-31T01:24:59.566Z,17.8
2017-07-31T01:25:59.853Z,17.77
2017-07-31T01:26:59.831Z,17.73
2017-07-31T01:27:59.806Z,17.74
2017-07-31T01:28:59.787Z,17.8
2017-07-31T01:29:59.771Z,17.71
2017-07-31T01:30:59.749Z,17.74
2017-07-31T01:31:59.725Z,17.68
2017-07-31T01:32:59.712Z,17.68
2017-07-31T01:33:59.741Z,17.71
2017-07-31T01:34:59.667Z,17.73
2017-07-31T01:35:59.653Z,17.7
2017-07-31T01:36:59.635Z,17.65
2017-07-31T01:37:59.606Z,17.66
2017-07-31T01:38:59.589Z,17.51
2017-07-31T01:39:59.575Z,17.54
2017-07-31T01:40:59.546Z,17.46
2017-07-31T01:41:59.242Z,17.47
2017-07-31T01:42:59.551Z,17.51
2017-07-31T01:43:59.488Z,17.55
2017-07-31T01:44:59.466Z,17.43
2017-07-31T01:45:59.444Z,17.51
2017-07-31T01:46:59.425Z,17.45
2017-07-31T01:47:59.412Z,17.49
2017-07-31T01:48:59.430Z,17.43
2017-07-31T01:49:59.357Z,17.43
2017-07-31T01:50:59.354Z,17.4
2017-07-31T01:51:59.318Z,17.39
2017-07-31T01:52:59.308Z,17.38
2017-07-31T01:53:59.284Z,17.25
2017-07-31T01:54:59.313Z,17.33
2017-07-31T01:55:59.240Z,17.33
2017-07-31T01:56:59.217Z,17.38
2017-07-31T01:57:59.206Z,17.28
2017-07-31T01:58:59.180Z,17.32
2017-07-31T01:59:59.370Z,17.28
2017-07-31T02:00:59.153Z,17.25
2017-07-31T02:01:59.117Z,17.3
2017-07-31T02:02:59.548Z,17.24
2017-07-31T02:03:59.134Z,17.2
2017-07-31T02:04:59.054Z,17.09
2017-07-31T02:05:59.049Z,17.14
2017-07-31T02:06:59.020Z,17.12
2017-07-31T02:07:59.035Z,17.07
2017-07-31T02:08:59.024Z,17.05
2017-07-31T02:09:58.949Z,17.02
2017-07-31T02:10:58.647Z,16.99
2017-07-31T02:11:58.917Z,16.98
2017-07-31T02:12:58.589Z,16.99
2017-07-31T02:13:58.874Z,17.03
2017-07-31T02:14:58.851Z,16.99
2017-07-31T02:15:58.829Z,16.99
2017-07-31T02:16:58.842Z,17.02
2017-07-31T02:17:58.787Z,16.96
2017-07-31T02:18:58.764Z,16.96
2017-07-31T02:19:58.750Z,16.92
2017-07-31T02:20:58.728Z,16.98
2017-07-31T02:21:58.706Z,16.9
2017-07-31T02:22:58.685Z,16.9
2017-07-31T02:23:58.665Z,16.98
2017-07-31T02:24:58.654Z,16.91
2017-07-31T02:25:58.631Z,16.85
2017-07-31T02:26:58.603Z,16.87
2017-07-31T02:27:58.590Z,16.95
2017-07-31T02:28:58.562Z,16.87
2017-07-31T02:29:58.539Z,16.85
2017-07-31T02:30:58.229Z,16.87
2017-07-31T02:31:58.255Z,16.88
2017-07-31T02:32:58.484Z,16.87
2017-07-31T02:33:58.155Z,16.69
2017-07-31T02:34:58.441Z,16.75
2017-07-31T02:35:58.132Z,16.75
2017-07-31T02:36:58.398Z,16.75
2017-07-31T02:37:58.433Z,16.73
2017-07-31T02:38:58.360Z,16.72
2017-07-31T02:39:58.337Z,16.82
2017-07-31T02:40:58.318Z,16.72
2017-07-31T02:41:58.294Z,16.7
2017-07-31T02:42:58.278Z,16.66
2017-07-31T02:43:58.256Z,16.7
2017-07-31T02:44:58.288Z,16.67
2017-07-31T02:45:58.215Z,16.7
2017-07-31T02:46:58.209Z,16.73
2017-07-31T02:47:58.167Z,16.69
2017-07-31T02:48:58.151Z,16.67
2017-07-31T02:49:58.188Z,16.63
2017-07-31T02:50:58.121Z,16.7
2017-07-31T02:51:57.497Z,16.66
2017-07-31T02:52:58.119Z,16.66
2017-07-31T02:53:58.051Z,16.65
2017-07-31T02:54:58.026Z,16.69
2017-07-31T02:55:58.065Z,16.66
2017-07-31T02:56:57.990Z,16.67
2017-07-31T02:57:57.968Z,16.6
2017-07-31T02:58:57.947Z,16.62
2017-07-31T02:59:57.926Z,16.63
2017-07-31T03:00:57.905Z,16.57
2017-07-31T03:01:57.583Z,16.63
2017-07-31T03:02:57.567Z,16.63
2017-07-31T03:03:57.889Z,16.62
2017-07-31T03:04:57.826Z,16.57
2017-07-31T03:05:57.213Z,16.57
2017-07-31T03:06:57.198Z,16.57
2017-07-31T03:07:57.230Z,16.6
2017-07-31T03:08:57.205Z,16.6
2017-07-31T03:09:57.438Z,16.59
2017-07-31T03:10:57.129Z,16.63
2017-07-31T03:11:57.094Z,16.65
2017-07-31T03:12:57.072Z,16.62
2017-07-31T03:13:57.645Z,16.59
2017-07-31T03:14:57.021Z,16.52
2017-07-31T03:15:57.607Z,16.59
2017-07-31T03:16:56.981Z,16.59
2017-07-31T03:17:56.974Z,16.52
2017-07-31T03:18:56.933Z,16.42
2017-07-31T03:19:56.917Z,16.45
2017-07-31T03:20:56.945Z,16.52
2017-07-31T03:21:57.521Z,16.48
2017-07-31T03:22:57.197Z,16.48
2017-07-31T03:23:57.429Z,16.57
2017-07-31T03:24:57.455Z,16.6
2017-07-31T03:25:57.442Z,16.52
2017-07-31T03:26:57.370Z,16.48
2017-07-31T03:27:57.352Z,16.48
2017-07-31T03:28:57.326Z,16.52
2017-07-31T03:29:57.303Z,16.45
2017-07-31T03:30:57.334Z,16.32
2017-07-31T03:31:57.263Z,16.29
2017-07-31T03:32:56.951Z,16.26
2017-07-31T03:33:57.276Z,16.33
2017-07-31T03:34:57.203Z,16.26
2017-07-31T03:35:57.184Z,16.3
2017-07-31T03:36:57.161Z,16.25
2017-07-31T03:37:57.140Z,16.26
2017-07-31T03:38:57.116Z,16.25
2017-07-31T03:39:57.102Z,16.32
2017-07-31T03:40:57.126Z,16.26
2017-07-31T03:41:57.115Z,16.18
2017-07-31T03:42:57.042Z,16.22
2017-07-31T03:43:57.010Z,16.25
2017-07-31T03:44:57.058Z,16.23
2017-07-31T03:45:57.020Z,16.14
2017-07-31T03:46:56.946Z,16.14
2017-07-31T03:47:56.627Z,16.11
2017-07-31T03:48:56.908Z,16.1
2017-07-31T03:49:56.886Z,16.16
2017-07-31T03:50:56.873Z,16.07
2017-07-31T03:51:56.842Z,16.08
2017-07-31T03:52:56.821Z,16.07
2017-07-31T03:53:56.807Z,16.04
2017-07-31T03:54:56.831Z,15.93
2017-07-31T03:55:56.761Z,16.03
2017-07-31T03:56:56.738Z,15.98
2017-07-31T03:57:56.719Z,15.99
2017-07-31T03:58:56.696Z,16.03
2017-07-31T03:59:56.676Z,16.07
2017-07-31T04:00:56.658Z,16.08
2017-07-31T04:01:56.634Z,15.92
2017-07-31T04:02:56.637Z,15.99
2017-07-31T04:03:56.590Z,16.06
2017-07-31T04:04:56.575Z,16.1
2017-07-31T04:05:56.250Z,16.1
2017-07-31T04:06:56.530Z,16.1
2017-07-31T04:07:56.555Z,16.01
2017-07-31T04:08:56.498Z,16.07
2017-07-31T04:09:56.475Z,16.07
2017-07-31T04:10:56.450Z,16.11
2017-07-31T04:11:56.426Z,16.14
2017-07-31T04:12:56.407Z,16.08
2017-07-31T04:13:56.085Z,16.1
2017-07-31T04:14:56.360Z,16.08
2017-07-31T04:15:56.341Z,16.1
2017-07-31T04:16:56.335Z,16.22
2017-07-31T04:17:56.307Z,16.23
2017-07-31T04:18:56.288Z,16.22
2017-07-31T04:19:55.964Z,16.25
2017-07-31T04:20:56.241Z,16.32
2017-07-31T04:21:56.286Z,16.44
2017-07-31T04:22:56.204Z,16.5
2017-07-31T04:23:56.182Z,16.59
2017-07-31T04:24:56.159Z,16.67
2017-07-31T04:25:56.385Z,16.7
2017-07-31T04:26:56.121Z,16.78
2017-07-31T04:27:56.106Z,16.87
2017-07-31T04:28:55.773Z,16.91
2017-07-31T04:29:56.108Z,17
2017-07-31T04:30:56.033Z,17.27
2017-07-31T04:31:56.068Z,17.3
2017-07-31T04:32:55.989Z,17.47
2017-07-31T04:33:55.972Z,17.57
2017-07-31T04:34:55.948Z,17.71
2017-07-31T04:35:55.928Z,17.83
2017-07-31T04:36:55.920Z,17.87
2017-07-31T04:37:55.947Z,18.07
2017-07-31T04:38:55.878Z,18.14
2017-07-31T04:39:55.852Z,18.19
2017-07-31T04:40:55.843Z,18.21
2017-07-31T04:41:55.815Z,18.35
2017-07-31T04:42:55.793Z,18.38
2017-07-31T04:43:55.821Z,18.5
2017-07-31T04:44:55.764Z,18.54
2017-07-31T04:45:55.789Z,18.54
2017-07-31T04:46:55.717Z,18.65
2017-07-31T04:47:55.404Z,18.76
2017-07-31T04:48:55.682Z,18.97
2017-07-31T04:49:55.360Z,19.13
2017-07-31T04:50:55.643Z,19.24
2017-07-31T04:51:55.647Z,19.23
2017-07-31T04:52:55.299Z,19.15
2017-07-31T04:53:55.583Z,19.3
2017-07-31T04:54:55.582Z,19.32
2017-07-31T04:55:55.544Z,19.46
2017-07-31T04:56:55.528Z,19.62
2017-07-31T04:57:55.527Z,19.62
2017-07-31T04:58:55.483Z,19.62
2017-07-31T04:59:55.471Z,19.71
2017-07-31T05:00:55.153Z,19.78
2017-07-31T05:01:55.127Z,19.86
2017-07-31T05:02:55.411Z,20.12
2017-07-31T05:03:55.393Z,20.2
2017-07-31T05:04:55.374Z,20.34
2017-07-31T05:05:55.355Z,20.44
2017-07-31T05:06:55.341Z,20.46
2017-07-31T05:07:55.320Z,20.58
2017-07-31T05:08:55.352Z,20.78
2017-07-31T05:09:55.278Z,20.87
2017-07-31T05:10:55.270Z,20.91
2017-07-31T05:11:55.243Z,20.96
2017-07-31T05:12:55.226Z,21
2017-07-31T05:13:55.410Z,21
2017-07-31T05:14:55.194Z,21.16
2017-07-31T05:15:55.196Z,21.19
2017-07-31T05:16:54.855Z,21.27
2017-07-31T05:17:55.137Z,21.33
2017-07-31T05:18:55.119Z,21.42
2017-07-31T05:19:55.102Z,21.56
2017-07-31T05:20:55.082Z,21.73
2017-07-31T05:21:55.070Z,21.86
2017-07-31T05:22:55.108Z,21.79
2017-07-31T05:23:55.039Z,21.85
2017-07-31T05:24:55.023Z,21.91
2017-07-31T05:25:55.006Z,21.85
2017-07-31T05:26:54.977Z,21.99
2017-07-31T05:27:54.962Z,21.94
2017-07-31T05:28:54.955Z,22.01
2017-07-31T05:29:54.939Z,21.91
2017-07-31T05:30:54.914Z,21.83
2017-07-31T05:31:54.905Z,21.71
2017-07-31T05:32:54.882Z,21.75
2017-07-31T05:33:54.869Z,21.66
2017-07-31T05:34:54.844Z,21.79
2017-07-31T05:35:54.829Z,21.81
2017-07-31T05:36:54.815Z,21.94
2017-07-31T05:37:54.842Z,21.99
2017-07-31T05:38:54.782Z,22.11
2017-07-31T05:39:54.761Z,22.26
2017-07-31T05:40:54.746Z,22.36
2017-07-31T05:41:54.477Z,22.45
2017-07-31T05:42:54.718Z,22.67
2017-07-31T05:43:54.702Z,22.84
2017-07-31T05:44:54.678Z,22.94
2017-07-31T05:45:54.716Z,22.86
2017-07-31T05:46:54.654Z,22.7
2017-07-31T05:47:54.638Z,22.54
2017-07-31T05:48:54.615Z,22.27
2017-07-31T05:49:54.607Z,22.21
2017-07-31T05:50:54.586Z,22.29
2017-07-31T05:51:54.567Z,22.36
2017-07-31T05:52:54.545Z,22.27
2017-07-31T05:53:54.539Z,22.36
2017-07-31T05:54:54.520Z,22.38
2017-07-31T05:55:54.500Z,22.49
2017-07-31T05:56:54.493Z,22.46
2017-07-31T05:57:54.477Z,22.52
2017-07-31T05:58:54.466Z,22.66
2017-07-31T05:59:54.140Z,22.81
2017-07-31T06:00:54.479Z,23.01
2017-07-31T06:01:54.410Z,23.15
2017-07-31T06:02:54.094Z,23.38
2017-07-31T06:03:54.381Z,23.52
2017-07-31T06:04:54.413Z,23.6
2017-07-31T06:05:54.350Z,23.77
2017-07-31T06:06:54.085Z,23.82
2017-07-31T06:07:54.311Z,23.82
2017-07-31T06:08:54.304Z,23.62
2017-07-31T06:09:54.033Z,23.72
2017-07-31T06:10:54.322Z,23.99
2017-07-31T06:11:54.307Z,24.09
2017-07-31T06:12:54.252Z,24.21
2017-07-31T06:13:54.235Z,24.19
2017-07-31T06:14:53.921Z,24.12
2017-07-31T06:15:54.192Z,24.3
2017-07-31T06:16:54.193Z,24.24
2017-07-31T06:17:54.220Z,24.21
2017-07-31T06:18:54.162Z,24.23
2017-07-31T06:19:53.836Z,24.46
2017-07-31T06:20:54.133Z,24.61
2017-07-31T06:21:54.129Z,24.68
2017-07-31T06:22:54.102Z,24.64
2017-07-31T06:23:54.084Z,24.68
2017-07-31T06:24:53.774Z,24.6
2017-07-31T06:25:54.053Z,24.9
2017-07-31T06:26:54.048Z,24.86
2017-07-31T06:27:54.078Z,25.09
2017-07-31T06:28:54.016Z,25.27
2017-07-31T06:29:54.011Z,25.56
2017-07-31T06:30:53.990Z,25.94
2017-07-31T06:31:53.975Z,26.06
2017-07-31T06:32:53.961Z,26.06
2017-07-31T06:33:53.951Z,26.06
2017-07-31T06:34:53.937Z,26.13
2017-07-31T06:35:53.927Z,26.21
2017-07-31T06:36:53.971Z,26.36
2017-07-31T06:37:53.901Z,26.19
2017-07-31T06:38:53.882Z,26.28
2017-07-31T06:39:53.577Z,26.31
2017-07-31T06:40:53.860Z,26.41
2017-07-31T06:41:53.841Z,26.61
2017-07-31T06:42:53.836Z,26.75
2017-07-31T06:43:53.829Z,26.93
2017-07-31T06:44:53.816Z,27.03
2017-07-31T06:45:53.804Z,27.03
2017-07-31T06:46:53.482Z,27.13
2017-07-31T06:47:53.777Z,27.18
2017-07-31T06:48:53.769Z,27.24
2017-07-31T06:49:53.752Z,27.2
2017-07-31T06:50:53.750Z,27.24
2017-07-31T06:51:53.428Z,27.31
2017-07-31T06:52:53.431Z,27.3
2017-07-31T06:53:53.714Z,27.48
2017-07-31T06:54:53.697Z,27.43
2017-07-31T06:55:53.730Z,27.46
2017-07-31T06:56:53.681Z,27.49
2017-07-31T06:57:53.665Z,27.46
2017-07-31T06:58:53.351Z,27.71
2017-07-31T06:59:53.648Z,27.71
2017-07-31T07:00:53.629Z,27.71
2017-07-31T07:01:53.620Z,27.45
2017-07-31T07:02:53.606Z,27.48
2017-07-31T07:03:53.600Z,27.61
2017-07-31T07:04:53.592Z,27.69
2017-07-31T07:05:53.575Z,27.9
2017-07-31T07:06:53.566Z,27.99
2017-07-31T07:07:53.559Z,28.23
2017-07-31T07:08:53.543Z,28.43
2017-07-31T07:09:53.538Z,28.58
2017-07-31T07:10:53.523Z,28.73
2017-07-31T07:11:53.512Z,28.83
2017-07-31T07:12:53.507Z,28.87
2017-07-31T07:13:53.702Z,28.94
2017-07-31T07:14:53.478Z,28.98
2017-07-31T07:15:53.469Z,28.97
2017-07-31T07:16:53.464Z,28.98
2017-07-31T07:17:53.452Z,28.94
2017-07-31T07:18:53.463Z,28.89
2017-07-31T07:19:53.438Z,28.72
2017-07-31T07:20:53.181Z,28.61
2017-07-31T07:21:53.423Z,28.45
2017-07-31T07:22:53.413Z,28.36
2017-07-31T07:23:53.446Z,28.57
2017-07-31T07:24:53.386Z,28.79
2017-07-31T07:25:53.367Z,29.03
2017-07-31T07:26:53.364Z,29.25
2017-07-31T07:27:53.360Z,29.27
2017-07-31T07:28:53.356Z,29.51
2017-07-31T07:29:53.040Z,29.57
2017-07-31T07:30:53.326Z,29.74
2017-07-31T07:31:53.317Z,29.88
2017-07-31T07:32:53.311Z,29.99
2017-07-31T07:33:53.351Z,30
2017-07-31T07:34:53.289Z,30.1
2017-07-31T07:35:52.981Z,30.15
2017-07-31T07:36:53.275Z,30.08
2017-07-31T07:37:53.264Z,29.81
2017-07-31T07:38:53.247Z,29.63
2017-07-31T07:39:53.254Z,29.29
2017-07-31T07:40:52.937Z,29.35
2017-07-31T07:41:53.227Z,29.35
2017-07-31T07:42:53.224Z,29.47
2017-07-31T07:43:53.215Z,29.7
2017-07-31T07:44:53.195Z,29.74
2017-07-31T07:45:53.256Z,29.92
2017-07-31T07:46:53.183Z,30.16
2017-07-31T07:47:53.166Z,30.21
2017-07-31T07:48:53.172Z,29.94
2017-07-31T07:49:52.876Z,29.64
2017-07-31T07:50:53.156Z,29.51
2017-07-31T07:51:53.137Z,29.49
2017-07-31T07:52:53.142Z,29.54
2017-07-31T07:53:53.131Z,29.55
2017-07-31T07:54:53.122Z,29.49
2017-07-31T07:55:53.103Z,29.44
2017-07-31T07:56:53.115Z,29.45
2017-07-31T07:57:53.094Z,29.73
2017-07-31T07:58:53.083Z,30.03
2017-07-31T07:59:52.789Z,30.21
2017-07-31T08:00:53.062Z,30.44
2017-07-31T08:01:53.055Z,30.44
2017-07-31T08:02:53.056Z,30.45
2017-07-31T08:03:52.737Z,30.37
2017-07-31T08:04:53.027Z,30.45
2017-07-31T08:05:52.718Z,30.32
2017-07-31T08:06:52.715Z,30.1
2017-07-31T08:07:53.014Z,29.79
2017-07-31T08:08:53.001Z,29.6
2017-07-31T08:09:52.993Z,29.73
2017-07-31T08:10:52.992Z,29.99
2017-07-31T08:11:52.983Z,29.85
2017-07-31T08:12:52.971Z,30.06
2017-07-31T08:13:52.974Z,30.23
2017-07-31T08:14:53.009Z,30.32
2017-07-31T08:15:52.951Z,30.59
2017-07-31T08:16:52.993Z,30.96
2017-07-31T08:17:52.942Z,31.04
2017-07-31T08:18:52.925Z,31.19
2017-07-31T08:19:52.932Z,31.04
2017-07-31T08:20:52.606Z,30.86
2017-07-31T08:21:53.114Z,30.57
2017-07-31T08:22:52.925Z,30.21
2017-07-31T08:23:52.883Z,29.84
2017-07-31T08:24:52.933Z,29.64
2017-07-31T08:25:52.877Z,29.54
2017-07-31T08:26:52.867Z,29.26
2017-07-31T08:27:52.863Z,29.27
2017-07-31T08:28:52.857Z,29.45
2017-07-31T08:29:52.839Z,29.76
2017-07-31T08:30:52.828Z,29.89
2017-07-31T08:31:52.822Z,29.79
2017-07-31T08:32:52.813Z,29.69
2017-07-31T08:33:52.501Z,29.86
2017-07-31T08:34:52.799Z,29.95
2017-07-31T08:35:52.794Z,30.42
2017-07-31T08:36:52.786Z,31.09
2017-07-31T08:37:52.774Z,31.34
2017-07-31T08:38:52.770Z,31.25
2017-07-31T08:39:52.451Z,31.23
2017-07-31T08:40:52.762Z,31.16
2017-07-31T08:41:52.455Z,30.91
2017-07-31T08:42:52.737Z,30.81
2017-07-31T08:43:52.734Z,30.79
2017-07-31T08:44:52.420Z,30.61
2017-07-31T08:45:52.711Z,30.46
2017-07-31T08:46:52.415Z,30.57
2017-07-31T08:47:52.401Z,30.56
2017-07-31T08:48:52.696Z,30.61
2017-07-31T08:49:52.381Z,30.37
2017-07-31T08:50:52.695Z,30.45
2017-07-31T08:51:52.659Z,30.25
2017-07-31T08:52:52.653Z,30.11
2017-07-31T08:53:52.644Z,30.19
2017-07-31T08:54:52.885Z,29.97
2017-07-31T08:55:52.626Z,29.99
2017-07-31T08:56:52.626Z,29.99
2017-07-31T08:57:52.623Z,29.7
2017-07-31T08:58:52.301Z,29.79
2017-07-31T08:59:52.594Z,29.73
2017-07-31T09:00:52.598Z,29.88
2017-07-31T09:01:52.579Z,30.26
2017-07-31T09:02:53.506Z,30.48
2017-07-31T09:03:52.559Z,30.83
2017-07-31T09:04:52.552Z,31.1
2017-07-31T09:05:52.551Z,31.35
2017-07-31T09:06:52.229Z,31.64
2017-07-31T09:07:52.532Z,31.97
2017-07-31T09:08:52.529Z,32.25
2017-07-31T09:09:52.512Z,32.43
2017-07-31T09:10:52.507Z,32.61
2017-07-31T09:11:52.500Z,32.63
2017-07-31T09:12:52.551Z,32.71
2017-07-31T09:13:52.486Z,32.93
2017-07-31T09:14:52.479Z,33.07
2017-07-31T09:15:52.173Z,33.02
2017-07-31T09:16:52.471Z,33.06
2017-07-31T09:17:52.163Z,33.07
2017-07-31T09:18:52.461Z,33.05
2017-07-31T09:19:52.449Z,33.14
2017-07-31T09:20:52.143Z,33.15
2017-07-31T09:21:52.146Z,33.15
2017-07-31T09:22:52.441Z,33.2
2017-07-31T09:23:52.427Z,33.26
2017-07-31T09:24:52.426Z,33.28
2017-07-31T09:25:52.478Z,33.37
2017-07-31T09:26:52.420Z,33.5
2017-07-31T09:27:52.416Z,33.62
2017-07-31T09:28:52.406Z,33.71
2017-07-31T09:29:52.408Z,33.66
2017-07-31T09:30:52.447Z,33.72
2017-07-31T09:31:52.393Z,33.68
2017-07-31T09:32:52.392Z,33.5
2017-07-31T09:33:52.377Z,33.34
2017-07-31T09:34:52.378Z,33.29
2017-07-31T09:35:52.377Z,33.41
2017-07-31T09:36:52.569Z,33.35
2017-07-31T09:37:52.360Z,33.35
2017-07-31T09:38:52.365Z,33.49
2017-07-31T09:39:52.356Z,33.5
2017-07-31T09:40:52.357Z,33.35
2017-07-31T09:41:52.354Z,33.37
2017-07-31T09:42:52.352Z,33.34
2017-07-31T09:43:52.337Z,33.44
2017-07-31T09:44:52.332Z,33.55
2017-07-31T09:45:52.035Z,33.68
2017-07-31T09:46:52.321Z,33.75
2017-07-31T09:47:52.328Z,33.89
2017-07-31T09:48:52.315Z,33.97
2017-07-31T09:49:52.321Z,33.72
2017-07-31T09:50:52.314Z,33.71
2017-07-31T09:51:52.307Z,33.6
2017-07-31T09:52:52.000Z,33.52
2017-07-31T09:53:52.301Z,33.41
2017-07-31T09:54:52.295Z,33.28
2017-07-31T09:55:52.289Z,33.18
2017-07-31T09:56:51.985Z,33.21
2017-07-31T09:57:52.278Z,33.26
2017-07-31T09:58:52.276Z,33.26
2017-07-31T09:59:52.271Z,33.14
2017-07-31T10:00:52.267Z,32.78
2017-07-31T10:01:52.259Z,32.29
2017-07-31T10:02:52.260Z,31.95
2017-07-31T10:03:51.952Z,31.84
2017-07-31T10:04:52.247Z,31.82
2017-07-31T10:05:52.248Z,31.82
2017-07-31T10:06:52.237Z,31.79
2017-07-31T10:07:52.234Z,31.52
2017-07-31T10:08:52.234Z,31.3
2017-07-31T10:09:52.222Z,31.34
2017-07-31T10:10:52.211Z,31.3
2017-07-31T10:11:52.199Z,31.38
2017-07-31T10:12:52.203Z,31.4
2017-07-31T10:13:52.189Z,31.41
2017-07-31T10:14:52.188Z,31.4
2017-07-31T10:15:51.877Z,31.34
2017-07-31T10:16:52.167Z,31.31
2017-07-31T10:17:52.168Z,31.3
2017-07-31T10:18:52.161Z,31.37
2017-07-31T10:19:53.158Z,31.59
2017-07-31T10:20:52.147Z,31.75
2017-07-31T10:21:52.147Z,31.72
2017-07-31T10:22:52.131Z,31.91
2017-07-31T10:23:52.131Z,32.02
2017-07-31T10:24:51.829Z,32.28
2017-07-31T10:25:52.168Z,32.39
2017-07-31T10:26:52.104Z,32.5
2017-07-31T10:27:52.111Z,32.65
2017-07-31T10:28:51.803Z,32.65
2017-07-31T10:29:52.096Z,32.65
2017-07-31T10:30:52.142Z,32.43
2017-07-31T10:31:51.799Z,32.17
2017-07-31T10:32:52.071Z,31.85
2017-07-31T10:33:52.068Z,31.79
2017-07-31T10:34:52.081Z,31.72
2017-07-31T10:35:51.458Z,31.54
2017-07-31T10:36:51.753Z,31.64
2017-07-31T10:37:52.038Z,31.69
2017-07-31T10:38:52.044Z,31.76
2017-07-31T10:39:52.043Z,31.82
2017-07-31T10:40:52.330Z,31.75
2017-07-31T10:41:51.795Z,31.88
2017-07-31T10:42:52.068Z,31.85
2017-07-31T10:43:52.020Z,31.72
2017-07-31T10:44:51.856Z,31.78
2017-07-31T10:45:52.016Z,31.75
2017-07-31T10:46:51.757Z,31.85
2017-07-31T10:47:51.689Z,31.97
2017-07-31T10:48:51.692Z,31.94
2017-07-31T10:49:51.981Z,31.99
2017-07-31T10:50:51.676Z,31.85
2017-07-31T10:51:51.967Z,31.76
2017-07-31T10:52:51.964Z,31.65
2017-07-31T10:53:51.960Z,31.37
2017-07-31T10:54:51.655Z,31.3
2017-07-31T10:55:51.642Z,31.12
2017-07-31T10:56:51.935Z,30.97
2017-07-31T10:57:51.935Z,30.82
2017-07-31T10:58:51.620Z,30.81
2017-07-31T10:59:51.977Z,30.82
2017-07-31T11:00:51.920Z,30.93
2017-07-31T11:01:51.903Z,30.81
2017-07-31T11:02:51.601Z,30.82
2017-07-31T11:03:51.894Z,30.66
2017-07-31T11:04:51.890Z,30.83
2017-07-31T11:05:51.890Z,30.79
2017-07-31T11:06:51.934Z,30.63
2017-07-31T11:07:51.873Z,30.57
2017-07-31T11:08:51.870Z,30.23
2017-07-31T11:09:51.857Z,30
2017-07-31T11:10:51.844Z,29.81
2017-07-31T11:11:51.865Z,29.69
2017-07-31T11:12:51.535Z,29.54
2017-07-31T11:13:51.834Z,29.25
2017-07-31T11:14:51.823Z,29.18
2017-07-31T11:15:51.815Z,29.08
2017-07-31T11:16:51.806Z,28.98
2017-07-31T11:17:51.795Z,28.91
2017-07-31T11:18:51.794Z,28.85
2017-07-31T11:19:51.789Z,28.74
2017-07-31T11:20:51.465Z,28.8
2017-07-31T11:21:51.756Z,28.6
2017-07-31T11:22:51.749Z,28.54
2017-07-31T11:23:51.438Z,28.43
2017-07-31T11:25:06.343Z,28.33
2017-07-31T11:25:51.720Z,28.27
2017-07-31T11:26:51.714Z,28.21
2017-07-31T11:27:51.705Z,28.24
2017-07-31T11:28:51.686Z,28.28
2017-07-31T11:29:51.678Z,28.21
2017-07-31T11:30:51.673Z,28.24
2017-07-31T11:31:51.660Z,28.23
2017-07-31T11:32:51.647Z,28.23
2017-07-31T11:33:51.331Z,28.15
2017-07-31T11:34:51.327Z,28.08
2017-07-31T11:35:51.607Z,28.03
2017-07-31T11:36:51.657Z,28.02
2017-07-31T11:37:51.594Z,28.01
2017-07-31T11:38:51.574Z,27.93
2017-07-31T11:39:51.558Z,27.96
2017-07-31T11:40:51.604Z,27.99
2017-07-31T11:41:51.241Z,27.71
2017-07-31T11:42:51.224Z,27.69
2017-07-31T11:43:51.541Z,27.52
2017-07-31T11:44:51.511Z,27.46
2017-07-31T11:45:51.493Z,27.42
2017-07-31T11:46:51.222Z,27.33
2017-07-31T11:47:51.465Z,27.28
2017-07-31T11:48:51.154Z,27.21
2017-07-31T11:49:51.436Z,27.24
2017-07-31T11:50:51.422Z,27.18
2017-07-31T11:51:51.404Z,27.23
2017-07-31T11:52:51.399Z,27.21
2017-07-31T11:53:51.379Z,27.38
2017-07-31T11:54:51.373Z,27.28
2017-07-31T11:55:51.360Z,27.27
2017-07-31T11:56:51.347Z,27.2
2017-07-31T11:57:51.347Z,27.2
2017-07-31T11:58:51.323Z,27.4
2017-07-31T11:59:51.351Z,27.38
2017-07-31T12:00:51.312Z,27.33
2017-07-31T12:01:51.282Z,27.31
2017-07-31T12:02:51.277Z,27.38
2017-07-31T12:03:51.256Z,27.42
2017-07-31T12:04:51.284Z,27.35
2017-07-31T12:05:50.921Z,27.35
2017-07-31T12:06:51.202Z,27.43
2017-07-31T12:07:51.202Z,27.43
2017-07-31T12:08:51.189Z,27.48
2017-07-31T12:09:51.165Z,27.46
2017-07-31T12:10:51.206Z,27.45
2017-07-31T12:11:51.143Z,27.49
2017-07-31T12:12:50.830Z,27.49
2017-07-31T12:13:51.127Z,27.46
2017-07-31T12:14:50.802Z,27.39
2017-07-31T12:15:50.797Z,27.42
2017-07-31T12:16:51.080Z,27.39
2017-07-31T12:17:51.070Z,27.34
2017-07-31T12:18:51.097Z,27.18
2017-07-31T12:19:51.043Z,27.11
2017-07-31T12:20:51.023Z,27.05
2017-07-31T12:21:51.020Z,27.05
2017-07-31T12:22:50.992Z,27.08
2017-07-31T12:23:50.988Z,27.24
2017-07-31T12:24:50.972Z,27.21
2017-07-31T12:25:50.957Z,27.21
2017-07-31T12:26:50.988Z,27.15
2017-07-31T12:27:50.934Z,27.27
2017-07-31T12:28:50.914Z,27.09
2017-07-31T12:29:50.903Z,27.06
2017-07-31T12:30:50.884Z,26.88
2017-07-31T12:31:50.869Z,26.81
2017-07-31T12:32:50.859Z,26.71
2017-07-31T12:33:50.864Z,26.72
2017-07-31T12:34:50.832Z,26.6
2017-07-31T12:35:50.816Z,26.59
2017-07-31T12:36:50.811Z,26.71
2017-07-31T12:37:50.782Z,26.61
2017-07-31T12:38:50.768Z,26.69
2017-07-31T12:39:50.456Z,26.64
2017-07-31T12:40:50.747Z,26.76
2017-07-31T12:41:50.727Z,26.75
2017-07-31T12:42:50.712Z,26.76
2017-07-31T12:43:50.696Z,26.76
2017-07-31T12:44:50.693Z,26.69
2017-07-31T12:45:50.670Z,26.59
2017-07-31T12:46:50.661Z,26.6
2017-07-31T12:47:50.350Z,26.5
2017-07-31T12:48:50.679Z,26.5
2017-07-31T12:49:50.611Z,26.51
2017-07-31T12:50:50.602Z,26.51
2017-07-31T12:51:50.575Z,26.54
2017-07-31T12:52:50.571Z,26.49
2017-07-31T12:53:50.562Z,26.53
2017-07-31T12:54:50.535Z,26.53